Terminal Aerodrome Forecast
Issued by NWS Paducah, KY

Home | Current Version | Previous Version | Graphics & Text | Print | Product List | Glossary On
Versions: 1 2 3 4 5 6 7 8 9 10 11 12 13 14 15 16 17
000
FTUS43 KPAH 262200 AAA
TAFEVV
TAF AMD
KEVV 262234Z 2623/2718 18006KT P6SM BKN250
     FM270000 17006KT P6SM FEW050 BKN150
     FM270600 17005KT P6SM BKN050 PROB30 2710/2714 -SHRA BKN025
     FM271400 18006KT 4SM SHRA BR OVC015=

USA.gov is the U.S. government's official web portal to all federal, state and local government web resources and services.